createdAt,value
2023-05-02T00:00:06.950Z,97461.41
2023-05-02T00:04:08.528Z,97455.22
2023-05-02T00:08:11.428Z,97449.50
2023-05-02T00:12:12.865Z,97456.34
2023-05-02T00:16:14.261Z,97455.31
2023-05-02T00:20:15.618Z,97454.56
2023-05-02T00:24:18.769Z,97457.59
2023-05-02T00:28:20.320Z,97468.09
2023-05-02T00:32:21.763Z,97466.72
2023-05-02T00:36:23.198Z,97462.38
2023-05-02T00:40:25.923Z,97453.59
2023-05-02T00:44:27.348Z,97460.53
2023-05-02T00:48:28.928Z,97462.72
2023-05-02T00:52:30.374Z,97462.47
2023-05-02T00:56:33.129Z,97470.97
2023-05-02T01:00:42.961Z,97466.88
2023-05-02T01:04:50.396Z,97468.53
2023-05-02T01:08:55.729Z,97464.69
2023-05-02T01:12:59.821Z,97480.09
2023-05-02T01:17:04.473Z,97476.56
2023-05-02T01:21:07.115Z,97479.56
2023-05-02T01:25:14.360Z,97489.47
2023-05-02T01:29:17.573Z,97494.16
2023-05-02T01:33:19.316Z,97493.91
2023-05-02T01:37:22.493Z,97499.09
2023-05-02T01:41:25.253Z,97498.84
2023-05-02T01:45:29.056Z,97497.22
2023-05-02T01:49:30.782Z,97494.47
2023-05-02T01:53:34.151Z,97503.25
2023-05-02T01:57:37.378Z,97495.59
2023-05-02T02:01:40.627Z,97507.09
2023-05-02T02:05:42.447Z,97510.94
2023-05-02T02:09:43.894Z,97514.78
2023-05-02T02:13:48.716Z,97517.28
2023-05-02T02:17:55.176Z,97523.03
2023-05-02T02:21:58.204Z,97526.88
2023-05-02T02:26:00.524Z,97517.81
2023-05-02T02:30:02.140Z,97526.03
2023-05-02T02:34:05.403Z,97522.72
2023-05-02T02:38:11.341Z,97529.59
2023-05-02T02:42:15.702Z,97526.28
2023-05-02T02:46:20.292Z,97531.78
2023-05-02T02:50:29.621Z,97533.44
2023-05-02T02:54:33.814Z,97533.97
2023-05-02T02:58:40.045Z,97533.69
2023-05-02T03:02:42.606Z,97535.06
2023-05-02T03:06:45.473Z,97538.09
2023-05-02T03:10:46.918Z,97536.16
2023-05-02T03:14:48.370Z,97538.91
2023-05-02T03:18:49.702Z,97540.00
2023-05-02T03:22:52.413Z,97537.78
2023-05-02T03:26:54.720Z,97543.03
2023-05-02T03:30:56.073Z,97539.16
2023-05-02T03:34:57.406Z,97538.88
2023-05-02T03:39:00.185Z,97541.06
2023-05-02T03:43:01.531Z,97556.97
2023-05-02T03:47:02.936Z,97545.44
2023-05-02T03:51:05.335Z,97550.69
2023-05-02T03:55:08.424Z,97563.56
2023-05-02T03:59:09.801Z,97566.34
2023-05-02T04:03:11.202Z,97568.25
2023-05-02T04:07:12.549Z,97574.31
2023-05-02T04:11:15.405Z,97568.56
2023-05-02T04:15:16.751Z,97584.47
2023-05-02T04:19:18.603Z,97585.84
2023-05-02T04:23:19.953Z,97583.66
2023-05-02T04:27:22.720Z,97584.22
2023-05-02T04:31:24.226Z,97588.34
2023-05-02T04:35:25.634Z,97596.03
2023-05-02T04:39:27.089Z,97604.78
2023-05-02T04:43:29.784Z,97603.16
2023-05-02T04:47:31.207Z,97603.66
2023-05-02T04:51:32.697Z,97617.28
2023-05-02T04:55:34.048Z,97621.03
2023-05-02T04:59:36.880Z,97626.75
2023-05-02T05:03:38.753Z,97639.88
2023-05-02T05:07:40.153Z,97641.81
2023-05-02T05:11:41.513Z,97651.59
2023-05-02T05:15:44.331Z,97645.72
2023-05-02T05:19:45.800Z,97651.41
2023-05-02T05:23:47.150Z,97651.88
2023-05-02T05:27:48.486Z,97664.31
2023-05-02T05:31:51.247Z,97668.53
2023-05-02T05:35:52.673Z,97676.69
2023-05-02T05:39:54.056Z,97678.44
2023-05-02T05:43:55.392Z,97678.56
2023-05-02T05:47:58.109Z,97675.53
2023-05-02T05:52:00.614Z,97680.59
2023-05-02T05:56:08.191Z,97678.56
2023-05-02T06:00:10.072Z,97681.44
2023-05-02T06:04:12.895Z,97676.13
2023-05-02T06:08:14.275Z,97680.66
2023-05-02T06:12:15.614Z,97688.13
2023-05-02T06:16:16.965Z,97691.72
2023-05-02T06:20:19.738Z,97691.94
2023-05-02T06:24:21.080Z,97702.59
2023-05-02T06:28:22.445Z,97700.44
2023-05-02T06:32:23.785Z,97702.00
2023-05-02T06:36:26.487Z,97700.25
2023-05-02T06:40:27.939Z,97710.34
2023-05-02T06:44:29.336Z,97710.72
2023-05-02T06:48:30.696Z,97714.56
2023-05-02T06:52:33.413Z,97724.91
2023-05-02T06:56:34.803Z,97726.63
2023-05-02T07:00:36.194Z,97730.22
2023-05-02T07:04:37.694Z,97736.66
2023-05-02T07:08:40.401Z,97737.66
2023-05-02T07:12:41.749Z,97747.38
2023-05-02T07:16:43.199Z,97753.63
2023-05-02T07:20:44.911Z,97753.06
2023-05-02T07:24:47.660Z,97755.94
2023-05-02T07:28:48.992Z,97760.59
2023-05-02T07:32:50.364Z,97763.03
2023-05-02T07:36:51.748Z,97762.78
2023-05-02T07:40:57.387Z,97761.94
2023-05-02T07:44:58.791Z,97774.44
2023-05-02T07:49:00.219Z,97770.09
2023-05-02T07:53:01.632Z,97782.56
2023-05-02T07:57:04.328Z,97780.16
2023-05-02T08:01:05.688Z,97774.28
2023-05-02T08:05:07.872Z,97786.06
2023-05-02T08:09:09.348Z,97780.34
2023-05-02T08:13:12.240Z,97793.91
2023-05-02T08:17:13.868Z,97790.81
2023-05-02T08:21:15.230Z,97792.28
2023-05-02T08:25:16.574Z,97799.81
2023-05-02T08:29:19.385Z,97804.75
2023-05-02T08:33:20.786Z,97809.09
2023-05-02T08:37:22.276Z,97816.53
2023-05-02T08:41:23.953Z,97813.59
2023-05-02T08:45:26.855Z,97821.59
2023-05-02T08:49:29.408Z,97824.06
2023-05-02T08:53:32.214Z,97824.06
2023-05-02T08:57:33.558Z,97832.09
2023-05-02T09:01:37.377Z,97830.28
2023-05-02T09:05:40.416Z,97832.69
2023-05-02T09:09:41.888Z,97837.47
2023-05-02T09:13:44.143Z,97839.41
2023-05-02T09:17:48.326Z,97852.69
2023-05-02T09:21:49.898Z,97852.94
2023-05-02T09:25:51.321Z,97855.84
2023-05-02T09:29:52.700Z,97853.88
2023-05-02T09:33:55.436Z,97858.19
2023-05-02T09:37:57.092Z,97861.84
2023-05-02T09:41:58.728Z,97858.63
2023-05-02T09:46:00.758Z,97868.66
2023-05-02T09:50:03.716Z,97868.22
2023-05-02T09:54:05.114Z,97861.94
2023-05-02T09:58:06.868Z,97862.66
2023-05-02T10:02:08.712Z,97866.03
2023-05-02T10:06:11.819Z,97873.38
2023-05-02T10:10:17.062Z,97871.72
2023-05-02T10:14:19.552Z,97879.25
2023-05-02T10:18:21.908Z,97877.50
2023-05-02T10:22:25.489Z,97881.69
2023-05-02T10:26:29.915Z,97877.28
2023-05-02T10:30:31.521Z,97875.44
2023-05-02T10:34:33.130Z,97872.41
2023-05-02T10:38:36.482Z,97878.25
2023-05-02T10:42:38.395Z,97867.09
2023-05-02T10:46:40.378Z,97871.41
2023-05-02T10:50:48.791Z,97866.47
2023-05-02T10:54:52.226Z,97866.56
2023-05-02T10:58:53.668Z,97875.97
2023-05-02T11:02:55.250Z,97870.00
2023-05-02T11:07:11.496Z,97861.34
2023-05-02T11:11:31.252Z,97858.78
2023-05-02T11:15:51.250Z,97855.16
2023-05-02T11:20:11.048Z,97862.78
2023-05-02T11:24:31.082Z,97865.97
2023-05-02T11:28:43.944Z,97858.03
2023-05-02T11:33:04.064Z,97856.63
2023-05-02T11:37:10.490Z,97846.50
2023-05-02T11:41:11.829Z,97844.63
2023-05-02T11:45:14.545Z,97843.22
2023-05-02T11:49:15.921Z,97833.66
2023-05-02T11:53:18.052Z,97833.31
2023-05-02T11:57:19.606Z,97844.63
2023-05-02T12:01:22.303Z,97841.72
2023-05-02T12:05:27.819Z,97840.91
2023-05-02T12:09:29.194Z,97837.50
2023-05-02T12:13:30.559Z,97840.72
2023-05-02T12:17:34.290Z,97841.28
2023-05-02T12:21:35.727Z,97836.38
2023-05-02T12:25:38.001Z,97835.84
2023-05-02T12:29:39.856Z,97831.13
2023-05-02T12:33:45.905Z,97826.56
2023-05-02T12:37:47.486Z,97829.66
2023-05-02T12:41:48.859Z,97832.47
2023-05-02T12:45:50.435Z,97826.00
2023-05-02T12:49:53.610Z,97828.91
2023-05-02T12:53:54.964Z,97831.53
2023-05-02T12:58:00.122Z,97831.31
2023-05-02T13:02:01.619Z,97835.69
2023-05-02T13:06:04.700Z,97839.31
2023-05-02T13:10:06.460Z,97838.66
2023-05-02T13:14:07.809Z,97840.94
2023-05-02T13:18:09.203Z,97840.25
2023-05-02T13:22:11.980Z,97842.63
2023-05-02T13:26:13.346Z,97836.69
2023-05-02T13:30:14.691Z,97831.88
2023-05-02T13:34:16.038Z,97827.41
2023-05-02T13:38:18.730Z,97831.88
2023-05-02T13:42:20.106Z,97832.34
2023-05-02T13:46:21.532Z,97825.94
2023-05-02T13:50:22.936Z,97816.09
2023-05-02T13:54:25.606Z,97811.97
2023-05-02T13:58:26.973Z,97826.56
2023-05-02T14:02:28.375Z,97818.41
2023-05-02T14:06:29.831Z,97825.72
2023-05-02T14:10:32.541Z,97824.25
2023-05-02T14:14:33.934Z,97822.31
2023-05-02T14:18:35.356Z,97825.84
2023-05-02T14:22:36.675Z,97816.69
2023-05-02T14:26:39.370Z,97810.72
2023-05-02T14:30:42.459Z,97819.06
2023-05-02T14:34:43.813Z,97809.75
2023-05-02T14:38:45.167Z,97802.81
2023-05-02T14:42:47.878Z,97804.41
2023-05-02T14:46:49.297Z,97816.97
2023-05-02T14:50:50.696Z,97815.00
2023-05-02T14:54:52.026Z,97823.75
2023-05-02T14:58:54.750Z,97825.16
2023-05-02T15:02:56.454Z,97824.09
2023-05-02T15:06:58.189Z,97826.91
2023-05-02T15:10:59.838Z,97837.56
2023-05-02T15:15:02.550Z,97852.22
2023-05-02T15:19:03.885Z,97852.31
2023-05-02T15:23:05.254Z,97872.94
2023-05-02T15:27:06.620Z,97869.19
2023-05-02T15:31:09.343Z,97882.50
2023-05-02T15:35:10.661Z,97884.38
2023-05-02T15:39:12.036Z,97883.59
2023-05-02T15:43:13.376Z,97891.31
2023-05-02T15:47:16.092Z,97904.88
2023-05-02T15:51:17.887Z,97906.25
2023-05-02T15:55:19.669Z,97913.06
2023-05-02T15:59:21.143Z,97909.13
2023-05-02T16:03:23.967Z,97919.94
2023-05-02T16:07:25.437Z,97923.88
2023-05-02T16:11:26.786Z,97924.34
2023-05-02T16:15:28.110Z,97932.59
2023-05-02T16:19:30.828Z,97925.69
2023-05-02T16:23:32.211Z,97933.75
2023-05-02T16:27:33.680Z,97933.41
2023-05-02T16:31:35.193Z,97939.31
2023-05-02T16:35:38.013Z,97929.75
2023-05-02T16:39:39.547Z,97930.88
2023-05-02T16:43:40.899Z,97921.56
2023-05-02T16:47:42.282Z,97922.38
2023-05-02T16:51:45.070Z,97923.81
2023-05-02T16:55:46.419Z,97921.19
2023-05-02T16:59:48.268Z,97921.88
2023-05-02T17:03:49.631Z,97925.06
2023-05-02T17:07:52.365Z,97926.84
2023-05-02T17:11:53.720Z,97920.69
2023-05-02T17:15:55.080Z,97929.03
2023-05-02T17:19:56.457Z,97925.41
2023-05-02T17:23:59.578Z,97926.97
2023-05-02T17:28:00.925Z,97927.09
2023-05-02T17:32:02.328Z,97938.91
2023-05-02T17:36:03.928Z,97940.72
2023-05-02T17:40:07.785Z,97943.94
2023-05-02T17:44:09.166Z,97951.75
2023-05-02T17:48:10.791Z,97958.69
2023-05-02T17:52:12.190Z,97959.47
2023-05-02T17:56:14.888Z,97968.03
2023-05-02T18:00:16.394Z,97972.28
2023-05-02T18:04:18.100Z,97980.72
2023-05-02T18:08:19.446Z,97980.97
2023-05-02T18:12:22.339Z,97988.13
2023-05-02T18:16:23.743Z,97993.06
2023-05-02T18:20:25.681Z,98004.31
2023-05-02T18:24:27.055Z,98007.84
2023-05-02T18:28:29.778Z,98015.44
2023-05-02T18:32:33.089Z,98028.19
2023-05-02T18:36:34.752Z,98029.19
2023-05-02T18:40:36.126Z,98044.19
2023-05-02T18:44:38.869Z,98057.63
2023-05-02T18:48:40.259Z,98055.91
2023-05-02T18:52:41.604Z,98060.75
2023-05-02T18:56:43.065Z,98069.38
2023-05-02T19:00:45.854Z,98075.28
2023-05-02T19:04:47.326Z,98081.47
2023-05-02T19:08:48.840Z,98079.31
2023-05-02T19:12:50.382Z,98085.09
2023-05-02T19:16:53.215Z,98084.94
2023-05-02T19:20:54.561Z,98093.44
2023-05-02T19:24:55.915Z,98106.41
2023-05-02T19:28:57.336Z,98108.69
2023-05-02T19:33:00.465Z,98111.44
2023-05-02T19:37:02.677Z,98127.09
2023-05-02T19:41:04.433Z,98118.44
2023-05-02T19:45:06.278Z,98134.34
2023-05-02T19:49:09.019Z,98131.91
2023-05-02T19:53:10.341Z,98137.53
2023-05-02T19:57:11.694Z,98136.78
2023-05-02T20:01:13.125Z,98152.00
2023-05-02T20:05:15.841Z,98153.19
2023-05-02T20:09:17.205Z,98144.16
2023-05-02T20:13:18.532Z,98151.28
2023-05-02T20:17:19.885Z,98157.53
2023-05-02T20:21:22.592Z,98158.03
2023-05-02T20:25:23.973Z,98157.16
2023-05-02T20:29:25.312Z,98156.22
2023-05-02T20:33:36.928Z,98155.72
2023-05-02T20:37:44.428Z,98155.16
2023-05-02T20:41:45.767Z,98161.78
2023-05-02T20:45:47.168Z,98162.28
2023-05-02T20:49:48.614Z,98167.03
2023-05-02T20:53:51.356Z,98165.69
2023-05-02T20:57:52.681Z,98167.59
2023-05-02T21:01:54.210Z,98176.22
2023-05-02T21:05:56.524Z,98181.44
2023-05-02T21:09:59.358Z,98183.97
2023-05-02T21:14:00.756Z,98184.25
2023-05-02T21:18:02.350Z,98183.97
2023-05-02T21:22:03.762Z,98178.47
2023-05-02T21:26:07.099Z,98177.97
2023-05-02T21:30:08.940Z,98187.91
2023-05-02T21:34:10.330Z,98184.59
2023-05-02T21:38:11.730Z,98186.03
2023-05-02T21:42:14.441Z,98191.84
2023-05-02T21:46:15.856Z,98190.78
2023-05-02T21:50:17.274Z,98194.09
2023-05-02T21:54:18.684Z,98194.63
2023-05-02T21:58:21.390Z,98198.25
2023-05-02T22:02:22.812Z,98206.78
2023-05-02T22:06:24.274Z,98206.72
2023-05-02T22:10:25.646Z,98209.78
2023-05-02T22:14:37.630Z,98206.47
2023-05-02T22:18:45.326Z,98208.41
2023-05-02T22:22:46.691Z,98211.13
2023-05-02T22:26:48.931Z,98210.84
2023-05-02T22:30:51.661Z,98212.47
2023-05-02T22:34:53.069Z,98210.56
2023-05-02T22:38:54.409Z,98210.53
2023-05-02T22:42:55.763Z,98209.69
2023-05-02T22:46:58.479Z,98202.78
2023-05-02T22:50:59.954Z,98211.84
2023-05-02T22:55:01.320Z,98209.34
2023-05-02T22:59:02.677Z,98214.56
2023-05-02T23:03:05.553Z,98210.72
2023-05-02T23:07:06.967Z,98204.31
2023-05-02T23:11:08.379Z,98199.31
2023-05-02T23:15:10.212Z,98201.78
2023-05-02T23:19:12.913Z,98205.31
2023-05-02T23:23:14.253Z,98211.34
2023-05-02T23:27:16.437Z,98211.31
2023-05-02T23:31:17.818Z,98208.03
2023-05-02T23:35:20.654Z,98214.63
2023-05-02T23:39:22.004Z,98222.78
2023-05-02T23:43:23.410Z,98221.13
2023-05-02T23:47:24.943Z,98223.91
2023-05-02T23:51:27.701Z,98223.28
2023-05-02T23:55:29.158Z,98218.31
2023-05-02T23:59:30.490Z,98224.56
